createdAt,value
2023-04-17T00:00:35.408Z,99.99
2023-04-17T00:05:35.346Z,99.99
2023-04-17T00:10:35.275Z,99.99
2023-04-17T00:15:35.217Z,99.99
2023-04-17T00:20:35.131Z,99.99
2023-04-17T00:25:35.072Z,99.99
2023-04-17T00:30:34.996Z,99.99
2023-04-17T00:35:34.937Z,99.99
2023-04-17T00:40:34.866Z,99.99
2023-04-17T00:45:34.850Z,99.99
2023-04-17T00:50:34.731Z,99.99
2023-04-17T00:55:34.686Z,99.99
2023-04-17T01:00:34.592Z,99.99
2023-04-17T01:05:34.555Z,99.99
2023-04-17T01:10:34.488Z,99.99
2023-04-17T01:15:34.416Z,99.99
2023-04-17T01:20:34.340Z,99.99
2023-04-17T01:25:34.279Z,99.99
2023-04-17T01:30:34.223Z,99.99
2023-04-17T01:35:34.145Z,99.99
2023-04-17T01:40:34.064Z,99.99
2023-04-17T01:45:34.002Z,99.99
2023-04-17T01:50:33.934Z,99.99
2023-04-17T01:55:33.871Z,99.99
2023-04-17T02:00:33.800Z,99.99
2023-04-17T02:05:33.737Z,99.99
2023-04-17T02:10:33.666Z,99.99
2023-04-17T02:15:33.682Z,99.99
2023-04-17T02:20:33.539Z,99.99
2023-04-17T02:25:33.491Z,99.99
2023-04-17T02:30:33.401Z,99.99
2023-04-17T02:35:33.368Z,99.99
2023-04-17T02:40:33.267Z,99.99
2023-04-17T02:45:33.222Z,99.99
2023-04-17T02:50:33.141Z,99.99
2023-04-17T02:55:33.088Z,99.99
2023-04-17T03:00:33.055Z,99.99
2023-04-17T03:05:32.963Z,99.99
2023-04-17T03:10:32.891Z,99.99
2023-04-17T03:15:32.828Z,99.99
2023-04-17T03:20:32.745Z,99.99
2023-04-17T03:25:32.697Z,99.99
2023-04-17T03:30:32.617Z,99.99
2023-04-17T03:35:32.556Z,99.99
2023-04-17T03:40:33.725Z,99.99
2023-04-17T03:45:32.460Z,99.99
2023-04-17T03:50:32.367Z,99.99
2023-04-17T03:55:32.288Z,99.99
2023-04-17T04:00:32.224Z,99.99
2023-04-17T04:05:32.152Z,99.99
2023-04-17T04:10:32.085Z,99.99
2023-04-17T04:15:32.014Z,99.99
2023-04-17T04:20:31.940Z,99.99
2023-04-17T04:25:31.882Z,99.99
2023-04-17T04:30:31.803Z,99.99
2023-04-17T04:35:31.748Z,99.99
2023-04-17T04:40:31.675Z,99.99
2023-04-17T04:45:31.612Z,99.99
2023-04-17T04:50:31.556Z,99.99
2023-04-17T04:55:31.484Z,99.99
2023-04-17T05:00:31.421Z,99.99
2023-04-17T05:05:31.353Z,99.99
2023-04-17T05:10:31.305Z,99.99
2023-04-17T05:15:31.221Z,99.99
2023-04-17T05:20:31.156Z,99.99
2023-04-17T05:25:31.092Z,99.99
2023-04-17T05:30:31.045Z,99.99
2023-04-17T05:35:30.980Z,99.99
2023-04-17T05:40:30.893Z,99.99
2023-04-17T05:45:30.850Z,99.99
2023-04-17T05:50:30.743Z,99.99
2023-04-17T05:55:30.699Z,99.99
2023-04-17T06:00:30.612Z,99.99
2023-04-17T06:05:30.671Z,99.99
2023-04-17T06:10:30.485Z,99.99
2023-04-17T06:15:30.422Z,99.99
2023-04-17T06:20:30.353Z,99.87
2023-04-17T06:25:30.285Z,99.87
2023-04-17T06:30:30.217Z,99.87
2023-04-17T06:35:30.156Z,99.99
2023-04-17T06:40:30.098Z,99.99
2023-04-17T06:45:30.048Z,99.98
2023-04-17T06:50:29.965Z,99.87
2023-04-17T06:55:29.905Z,99.99
2023-04-17T07:00:29.843Z,99.99
2023-04-17T07:05:29.777Z,99.99
2023-04-17T07:10:29.692Z,99.99
2023-04-17T07:15:29.681Z,99.99
2023-04-17T07:20:29.550Z,99.99
2023-04-17T07:25:29.500Z,99.78
2023-04-17T07:30:29.431Z,98.76
2023-04-17T07:35:29.359Z,98.65
2023-04-17T07:40:29.280Z,98.30
2023-04-17T07:45:29.245Z,97.07
2023-04-17T07:50:29.158Z,97.38
2023-04-17T07:55:29.092Z,97.33
2023-04-17T08:00:29.021Z,96.55
2023-04-17T08:05:29.007Z,96.71
2023-04-17T08:10:28.893Z,96.55
2023-04-17T08:15:28.849Z,96.09
2023-04-17T08:20:28.757Z,96.00
2023-04-17T08:25:28.710Z,95.58
2023-04-17T08:30:28.623Z,95.75
2023-04-17T08:35:28.579Z,95.09
2023-04-17T08:40:28.495Z,93.55
2023-04-17T08:45:28.443Z,93.65
2023-04-17T08:50:28.371Z,92.73
2023-04-17T08:55:28.306Z,93.61
2023-04-17T09:00:28.255Z,93.10
2023-04-17T09:05:28.169Z,91.35
2023-04-17T09:10:28.096Z,91.52
2023-04-17T09:15:28.035Z,90.08
2023-04-17T09:20:27.961Z,91.82
2023-04-17T09:25:27.902Z,90.49
2023-04-17T09:30:27.855Z,90.96
2023-04-17T09:35:27.785Z,90.92
2023-04-17T09:40:27.704Z,89.96
2023-04-17T09:45:27.657Z,90.06
2023-04-17T09:50:27.571Z,89.47
2023-04-17T09:55:27.534Z,87.54
2023-04-17T10:00:27.475Z,85.32
2023-04-17T10:05:27.377Z,84.47
2023-04-17T10:10:27.300Z,82.96
2023-04-17T10:15:27.227Z,81.26
2023-04-17T10:20:27.156Z,76.91
2023-04-17T10:25:27.098Z,77.05
2023-04-17T10:30:27.037Z,75.49
2023-04-17T10:35:26.964Z,76.58
2023-04-17T10:40:26.903Z,74.31
2023-04-17T10:45:26.838Z,74.50
2023-04-17T10:50:26.761Z,67.98
2023-04-17T10:55:26.719Z,71.63
2023-04-17T11:00:26.627Z,72.68
2023-04-17T11:05:26.597Z,65.38
2023-04-17T11:10:26.516Z,67.01
2023-04-17T11:15:26.444Z,66.54
2023-04-17T11:20:26.382Z,66.46
2023-04-17T11:25:26.320Z,64.94
2023-04-17T11:30:26.230Z,63.18
2023-04-17T11:35:26.168Z,67.98
2023-04-17T11:40:26.122Z,67.46
2023-04-17T11:45:26.034Z,69.39
2023-04-17T11:50:25.968Z,69.93
2023-04-17T11:55:25.914Z,70.24
2023-04-17T12:00:25.845Z,68.07
2023-04-17T12:05:25.844Z,72.03
2023-04-17T12:10:25.713Z,72.47
2023-04-17T12:15:25.647Z,73.57
2023-04-17T12:20:26.779Z,73.12
2023-04-17T12:25:25.523Z,71.86
2023-04-17T12:30:25.439Z,71.42
2023-04-17T12:35:25.383Z,68.71
2023-04-17T12:40:25.331Z,67.60
2023-04-17T12:45:25.314Z,64.55
2023-04-17T12:50:25.186Z,60.28
2023-04-17T12:55:25.118Z,63.33
2023-04-17T13:00:25.061Z,62.79
2023-04-17T13:05:24.995Z,61.74
2023-04-17T13:10:24.931Z,61.44
2023-04-17T13:15:24.863Z,62.53
2023-04-17T13:20:24.801Z,57.23
2023-04-17T13:25:24.731Z,62.10
2023-04-17T13:30:24.657Z,63.23
2023-04-17T13:35:24.595Z,62.18
2023-04-17T13:40:24.530Z,61.60
2023-04-17T13:45:24.484Z,62.05
2023-04-17T13:50:24.406Z,60.76
2023-04-17T13:55:24.414Z,61.52
2023-04-17T14:00:24.278Z,63.66
2023-04-17T14:05:24.208Z,59.96
2023-04-17T14:10:24.155Z,63.22
2023-04-17T14:15:24.073Z,60.87
2023-04-17T14:20:23.994Z,62.09
2023-04-17T14:25:23.936Z,61.22
2023-04-17T14:30:23.891Z,63.52
2023-04-17T14:35:23.887Z,65.99
2023-04-17T14:40:23.828Z,66.63
2023-04-17T14:45:23.814Z,67.07
2023-04-17T14:50:23.787Z,66.33
2023-04-17T14:55:23.530Z,64.97
2023-04-17T15:00:23.462Z,64.36
2023-04-17T15:05:23.417Z,63.22
2023-04-17T15:10:23.329Z,63.45
2023-04-17T15:15:23.260Z,63.04
2023-04-17T15:20:23.996Z,63.65
2023-04-17T15:25:23.138Z,63.95
2023-04-17T15:30:23.068Z,64.19
2023-04-17T15:35:22.994Z,65.72
2023-04-17T15:40:22.919Z,64.80
2023-04-17T15:45:22.857Z,66.84
2023-04-17T15:50:22.824Z,65.82
2023-04-17T15:55:22.730Z,66.19
2023-04-17T16:00:22.658Z,67.10
2023-04-17T16:05:22.588Z,67.44
2023-04-17T16:10:22.507Z,68.67
2023-04-17T16:15:22.457Z,69.18
2023-04-17T16:20:22.377Z,69.59
2023-04-17T16:25:22.325Z,70.30
2023-04-17T16:30:22.244Z,70.91
2023-04-17T16:35:22.179Z,71.63
2023-04-17T16:40:22.110Z,68.97
2023-04-17T16:45:22.054Z,68.97
2023-04-17T16:50:24.281Z,70.81
2023-04-17T16:55:21.936Z,69.62
2023-04-17T17:00:21.843Z,69.01
2023-04-17T17:05:21.810Z,72.71
2023-04-17T17:10:21.705Z,74.79
2023-04-17T17:15:21.658Z,75.81
2023-04-17T17:20:21.590Z,75.20
2023-04-17T17:25:21.529Z,75.75
2023-04-17T17:30:21.447Z,76.56
2023-04-17T17:35:21.486Z,76.81
2023-04-17T17:40:21.310Z,77.55
2023-04-17T17:45:21.254Z,75.34
2023-04-17T17:50:21.178Z,75.99
2023-04-17T17:55:21.120Z,75.99
2023-04-17T18:00:21.154Z,75.82
2023-04-17T18:05:21.002Z,76.33
2023-04-17T18:10:20.927Z,76.33
2023-04-17T18:15:20.889Z,76.87
2023-04-17T18:20:20.900Z,77.39
2023-04-17T18:25:20.741Z,78.21
2023-04-17T18:30:20.645Z,79.07
2023-04-17T18:35:20.596Z,79.99
2023-04-17T18:40:20.512Z,81.35
2023-04-17T18:45:20.466Z,81.97
2023-04-17T18:50:20.393Z,82.62
2023-04-17T18:55:20.311Z,83.24
2023-04-17T19:00:20.273Z,83.34
2023-04-17T19:05:20.206Z,83.65
2023-04-17T19:10:20.128Z,84.06
2023-04-17T19:15:20.048Z,84.47
2023-04-17T19:20:19.992Z,84.47
2023-04-17T19:25:19.917Z,84.82
2023-04-17T19:30:19.862Z,85.54
2023-04-17T19:35:19.778Z,85.54
2023-04-17T19:40:25.000Z,84.71
2023-04-17T19:45:19.643Z,84.61
2023-04-17T19:50:19.578Z,84.82
2023-04-17T19:55:19.502Z,84.75
2023-04-17T20:00:19.442Z,84.65
2023-04-17T20:05:19.371Z,84.55
2023-04-17T20:10:19.309Z,84.44
2023-04-17T20:15:19.234Z,84.65
2023-04-17T20:20:19.194Z,84.65
2023-04-17T20:25:19.106Z,84.65
2023-04-17T20:30:19.074Z,84.89
2023-04-17T20:35:18.972Z,85.51
2023-04-17T20:40:18.923Z,85.92
2023-04-17T20:45:18.841Z,86.02
2023-04-17T20:50:18.797Z,86.58
2023-04-17T20:55:18.876Z,87.29
2023-04-17T21:00:18.662Z,87.91
2023-04-17T21:05:18.574Z,88.36
2023-04-17T21:10:18.519Z,88.47
2023-04-17T21:15:18.452Z,89.02
2023-04-17T21:20:18.381Z,89.33
2023-04-17T21:25:18.316Z,89.99
2023-04-17T21:30:18.273Z,90.75
2023-04-17T21:35:18.178Z,90.65
2023-04-17T21:40:18.125Z,90.65
2023-04-17T21:45:18.045Z,90.65
2023-04-17T21:50:17.983Z,90.19
2023-04-17T21:55:17.918Z,90.30
2023-04-17T22:00:17.876Z,90.44
2023-04-17T22:05:17.779Z,90.65
2023-04-17T22:10:17.724Z,90.44
2023-04-17T22:15:17.664Z,90.65
2023-04-17T22:20:17.586Z,90.75
2023-04-17T22:25:17.529Z,91.16
2023-04-17T22:30:17.459Z,90.96
2023-04-17T22:35:17.390Z,90.85
2023-04-17T22:40:17.332Z,90.50
2023-04-17T22:45:17.264Z,90.50
2023-04-17T22:50:17.190Z,90.61
2023-04-17T22:55:17.124Z,90.96
2023-04-17T23:00:17.068Z,91.16
2023-04-17T23:05:17.120Z,91.37
2023-04-17T23:10:16.921Z,91.43
2023-04-17T23:15:16.849Z,91.78
2023-04-17T23:20:16.797Z,92.19
2023-04-17T23:25:16.716Z,92.25
2023-04-17T23:30:16.671Z,92.46
2023-04-17T23:35:16.605Z,92.35
2023-04-17T23:40:16.524Z,92.35
2023-04-17T23:45:16.463Z,92.46
2023-04-17T23:50:16.425Z,92.77
2023-04-17T23:55:16.340Z,92.93
